sensor_id;sensor_type;location;lat;lon;timestamp;pressure;altitude;pressure_sealevel;temperature;humidity
2036;BME280;23642;42.658;23.350;2023-06-10T00:01:30;42682.56;;;-146.31;100.00
2036;BME280;23642;42.658;23.350;2023-06-10T00:04:23;42746.34;;;-146.31;100.00
2036;BME280;23642;42.658;23.350;2023-06-10T00:07:37;42627.00;;;-146.31;100.00
2036;BME280;23642;42.658;23.350;2023-06-10T00:10:41;42622.91;;;-146.31;100.00
2036;BME280;23642;42.658;23.350;2023-06-10T00:13:22;42629.06;;;-146.31;100.00
2036;BME280;23642;42.658;23.350;2023-06-10T00:16:29;42583.81;;;-146.31;100.00
2036;BME280;23642;42.658;23.350;2023-06-10T00:22:26;42631.13;;;-146.31;100.00
2036;BME280;23642;42.658;23.350;2023-06-10T00:25:21;42801.91;;;-146.31;100.00
2036;BME280;23642;42.658;23.350;2023-06-10T00:31:21;42985.06;;;-146.31;100.00
2036;BME280;23642;42.658;23.350;2023-06-10T00:36:50;42962.41;;;-146.31;100.00
2036;BME280;23642;42.658;23.350;2023-06-10T00:39:30;43149.69;;;-146.31;100.00
2036;BME280;23642;42.658;23.350;2023-06-10T00:42:13;43100.31;;;-146.31;100.00
2036;BME280;23642;42.658;23.350;2023-06-10T00:44:49;43048.84;;;-146.31;100.00
2036;BME280;23642;42.658;23.350;2023-06-10T00:47:30;42910.97;;;-146.31;100.00
2036;BME280;23642;42.658;23.350;2023-06-10T00:50:07;43061.19;;;-146.31;100.00
2036;BME280;23642;42.658;23.350;2023-06-10T00:52:54;43306.09;;;-146.31;100.00
2036;BME280;23642;42.658;23.350;2023-06-10T00:55:26;43616.88;;;-146.31;100.00
2036;BME280;23642;42.658;23.350;2023-06-10T01:01:04;43532.50;;;-146.31;100.00
2036;BME280;23642;42.658;23.350;2023-06-10T01:03:51;43392.53;;;-146.31;100.00
2036;BME280;23642;42.658;23.350;2023-06-10T01:07:05;43229.94;;;-146.31;100.00
2036;BME280;23642;42.658;23.350;2023-06-10T01:09:53;43059.16;;;-146.31;100.00
2036;BME280;23642;42.658;23.350;2023-06-10T01:12:36;42960.38;;;-146.31;100.00
2036;BME280;23642;42.658;23.350;2023-06-10T01:15:15;42871.88;;;-146.31;100.00
2036;BME280;23642;42.658;23.350;2023-06-10T01:18:00;42662.00;;;-146.31;100.00
2036;BME280;23642;42.658;23.350;2023-06-10T01:20:37;42610.56;;;-146.31;100.00
2036;BME280;23642;42.658;23.350;2023-06-10T01:23:08;42721.66;;;-146.31;100.00
2036;BME280;23642;42.658;23.350;2023-06-10T01:25:49;42801.91;;;-146.31;100.00
2036;BME280;23642;42.658;23.350;2023-06-10T01:28:28;42923.31;;;-146.31;100.00
2036;BME280;23642;42.658;23.350;2023-06-10T01:31:25;42857.47;;;-146.31;100.00
2036;BME280;23642;42.658;23.350;2023-06-10T01:34:12;42871.88;;;-146.31;100.00
2036;BME280;23642;42.658;23.350;2023-06-10T01:37:27;43069.44;;;-146.31;100.00
2036;BME280;23642;42.658;23.350;2023-06-10T01:40:22;43106.47;;;-146.31;100.00
2036;BME280;23642;42.658;23.350;2023-06-10T01:43:13;43114.72;;;-146.31;100.00
2036;BME280;23642;42.658;23.350;2023-06-10T01:45:45;43127.06;;;-146.31;100.00
2036;BME280;23642;42.658;23.350;2023-06-10T01:51:08;43188.78;;;-146.31;100.00
2036;BME280;23642;42.658;23.350;2023-06-10T01:53:39;43367.84;;;-146.31;100.00
2036;BME280;23642;42.658;23.350;2023-06-10T01:56:21;43376.06;;;-146.31;100.00
2036;BME280;23642;42.658;23.350;2023-06-10T02:00:13;43330.78;;;-146.31;100.00
2036;BME280;23642;42.658;23.350;2023-06-10T02:02:06;43437.81;;;-146.31;100.00
2036;BME280;23642;42.658;23.350;2023-06-10T02:04:42;43456.34;;;-146.31;100.00
2036;BME280;23642;42.658;23.350;2023-06-10T02:07:22;43513.97;;;-146.31;100.00
2036;BME280;23642;42.658;23.350;2023-06-10T02:10:18;43493.38;;;-146.31;100.00
2036;BME280;23642;42.658;23.350;2023-06-10T02:12:55;43398.72;;;-146.31;100.00
2036;BME280;23642;42.658;23.350;2023-06-10T02:15:33;43425.47;;;-146.31;100.00
2036;BME280;23642;42.658;23.350;2023-06-10T02:18:04;43376.06;;;-146.31;100.00
2036;BME280;23642;42.658;23.350;2023-06-10T02:20:38;43250.53;;;-146.31;100.00
2036;BME280;23642;42.658;23.350;2023-06-10T02:23:37;43017.97;;;-146.31;100.00
2036;BME280;23642;42.658;23.350;2023-06-10T02:26:09;42857.47;;;-146.31;100.00
2036;BME280;23642;42.658;23.350;2023-06-10T02:29:11;42740.19;;;-146.31;100.00
2036;BME280;23642;42.658;23.350;2023-06-10T02:31:49;42589.97;;;-146.31;100.00
2036;BME280;23642;42.658;23.350;2023-06-10T02:34:18;42480.94;;;-146.31;100.00
2036;BME280;23642;42.658;23.350;2023-06-10T02:36:46;42312.22;;;-146.31;100.00
2036;BME280;23642;42.658;23.350;2023-06-10T02:39:14;42421.25;;;-146.31;100.00
2036;BME280;23642;42.658;23.350;2023-06-10T02:41:45;42485.03;;;-146.31;100.00
2036;BME280;23642;42.658;23.350;2023-06-10T02:44:24;42542.66;;;-146.31;100.00
2036;BME280;23642;42.658;23.350;2023-06-10T02:47:01;42596.16;;;-146.31;100.00
2036;BME280;23642;42.658;23.350;2023-06-10T02:49:49;42538.53;;;-146.31;100.00
2036;BME280;23642;42.658;23.350;2023-06-10T02:52:40;43013.88;;;-146.31;100.00
2036;BME280;23642;42.658;23.350;2023-06-10T02:55:21;43151.75;;;-146.31;100.00
2036;BME280;23642;42.658;23.350;2023-06-10T02:58:02;43009.75;;;-146.31;100.00
2036;BME280;23642;42.658;23.350;2023-06-10T03:00:54;42822.50;;;-146.31;100.00
2036;BME280;23642;42.658;23.350;2023-06-10T03:03:50;42806.03;;;-146.31;100.00
2036;BME280;23642;42.658;23.350;2023-06-10T03:06:49;43308.16;;;-146.31;100.00
2036;BME280;23642;42.658;23.350;2023-06-10T03:09:59;43271.13;;;-146.31;100.00
2036;BME280;23642;42.658;23.350;2023-06-10T03:12:50;43087.94;;;-146.31;100.00
2036;BME280;23642;42.658;23.350;2023-06-10T03:16:29;42771.06;;;-146.31;100.00
2036;BME280;23642;42.658;23.350;2023-06-10T03:19:14;42495.34;;;-146.31;100.00
2036;BME280;23642;42.658;23.350;2023-06-10T03:22:21;42264.91;;;-146.31;100.00
2036;BME280;23642;42.658;23.350;2023-06-10T03:24:58;42168.19;;;-146.31;100.00
2036;BME280;23642;42.658;23.350;2023-06-10T03:27:31;42090.03;;;-146.31;100.00
2036;BME280;23642;42.658;23.350;2023-06-10T03:30:16;42036.53;;;-146.31;100.00
2036;BME280;23642;42.658;23.350;2023-06-10T03:33:11;42075.63;;;-146.31;100.00
2036;BME280;23642;42.658;23.350;2023-06-10T03:35:55;42252.56;;;-146.31;100.00
2036;BME280;23642;42.658;23.350;2023-06-10T03:38:34;42147.63;;;-146.31;100.00
2036;BME280;23642;42.658;23.350;2023-06-10T03:41:45;41931.63;;;-146.31;100.00
2036;BME280;23642;42.658;23.350;2023-06-10T03:44:35;41686.81;;;-146.31;100.00
2036;BME280;23642;42.658;23.350;2023-06-10T03:47:32;41756.75;;;-146.31;100.00
2036;BME280;23642;42.658;23.350;2023-06-10T03:50:26;41764.97;;;-146.31;100.00
2036;BME280;23642;42.658;23.350;2023-06-10T03:53:01;41808.19;;;-146.31;100.00
2036;BME280;23642;42.658;23.350;2023-06-10T03:55:32;41775.28;;;-146.31;100.00
2036;BME280;23642;42.658;23.350;2023-06-10T03:58:10;41740.28;;;-146.31;100.00
2036;BME280;23642;42.658;23.350;2023-06-10T04:00:50;41588.06;;;-146.31;100.00
2036;BME280;23642;42.658;23.350;2023-06-10T04:03:26;41600.41;;;-146.31;100.00
2036;BME280;23642;42.658;23.350;2023-06-10T04:05:59;41468.78;;;-146.31;100.00
2036;BME280;23642;42.658;23.350;2023-06-10T04:08:41;41415.28;;;-146.31;100.00
2036;BME280;23642;42.658;23.350;2023-06-10T04:11:12;41382.38;;;-146.31;100.00
2036;BME280;23642;42.658;23.350;2023-06-10T04:13:55;41429.69;;;-146.31;100.00
2036;BME280;23642;42.658;23.350;2023-06-10T04:16:34;41380.31;;;-146.31;100.00
2036;BME280;23642;42.658;23.350;2023-06-10T04:19:14;41563.41;;;-146.31;100.00
2036;BME280;23642;42.658;23.350;2023-06-10T04:22:03;41697.09;;;-146.31;100.00
2036;BME280;23642;42.658;23.350;2023-06-10T04:24:42;41567.50;;;-146.31;100.00
2036;BME280;23642;42.658;23.350;2023-06-10T04:27:23;41514.03;;;-146.31;100.00
2036;BME280;23642;42.658;23.350;2023-06-10T04:34:12;41633.34;;;-146.31;100.00
2036;BME280;23642;42.658;23.350;2023-06-10T04:36:45;41598.38;;;-146.31;100.00
2036;BME280;23642;42.658;23.350;2023-06-10T04:39:32;41610.72;;;-146.31;100.00
2036;BME280;23642;42.658;23.350;2023-06-10T04:42:10;41769.09;;;-146.31;100.00
2036;BME280;23642;42.658;23.350;2023-06-10T04:45:03;41789.66;;;-146.31;100.00
2036;BME280;23642;42.658;23.350;2023-06-10T04:47:44;41995.38;;;-146.31;100.00
2036;BME280;23642;42.658;23.350;2023-06-10T04:50:27;42343.06;;;-146.31;100.00
2036;BME280;23642;42.658;23.350;2023-06-10T05:00:29;43118.81;;;-146.31;100.00
2036;BME280;23642;42.658;23.350;2023-06-10T05:03:07;43365.78;;;-146.31;100.00
2036;BME280;23642;42.658;23.350;2023-06-10T05:06:05;43602.47;;;-146.31;100.00
2036;BME280;23642;42.658;23.350;2023-06-10T05:22:16;43748.59;;;-146.31;100.00
2036;BME280;23642;42.658;23.350;2023-06-10T05:25:37;43849.47;;;-146.31;100.00
2036;BME280;23642;42.658;23.350;2023-06-10T05:28:30;44180.88;;;-146.31;100.00
2036;BME280;23642;42.658;23.350;2023-06-10T05:32:00;44077.94;;;-146.31;100.00
2036;BME280;23642;42.658;23.350;2023-06-10T05:38:01;44131.47;;;-146.31;100.00
2036;BME280;23642;42.658;23.350;2023-06-10T05:44:06;44368.22;;;-146.31;100.00
2036;BME280;23642;42.658;23.350;2023-06-10T05:47:30;44563.78;;;-146.31;100.00
2036;BME280;23642;42.658;23.350;2023-06-10T05:50:13;44681.16;;;-146.31;100.00
2036;BME280;23642;42.658;23.350;2023-06-10T05:53:08;45012.63;;;-146.31;98.36
2036;BME280;23642;42.658;23.350;2023-06-10T05:55:45;45169.13;;;-146.31;97.33
2036;BME280;23642;42.658;23.350;2023-06-10T05:58:20;45298.88;;;-146.31;97.17
2036;BME280;23642;42.658;23.350;2023-06-10T06:01:35;45622.19;;;-146.31;94.93
2036;BME280;23642;42.658;23.350;2023-06-10T06:07:18;45848.72;;;-146.31;93.90
2036;BME280;23642;42.658;23.350;2023-06-10T06:13:34;46120.59;;;-146.31;93.94
2036;BME280;23642;42.658;23.350;2023-06-10T06:16:21;46095.88;;;-146.31;92.92
2036;BME280;23642;42.658;23.350;2023-06-10T06:19:05;46106.19;;;-146.31;93.91
2036;BME280;23642;42.658;23.350;2023-06-10T06:21:51;46254.50;;;-146.31;93.82
2036;BME280;23642;42.658;23.350;2023-06-10T06:25:25;46285.38;;;-146.31;94.75
2036;BME280;23642;42.658;23.350;2023-06-10T06:27:43;46203.00;;;-146.31;93.34
2036;BME280;23642;42.658;23.350;2023-06-10T06:30:36;46306.00;;;-146.31;90.38
2036;BME280;23642;42.658;23.350;2023-06-10T06:33:20;46573.78;;;-146.31;90.09
2036;BME280;23642;42.658;23.350;2023-06-10T06:36:30;46569.66;;;-146.31;90.43
2036;BME280;23642;42.658;23.350;2023-06-10T06:49:04;46924.00;;;-146.31;89.96
2036;BME280;23642;42.658;23.350;2023-06-10T06:52:06;46994.06;;;-146.31;87.20
2036;BME280;23642;42.658;23.350;2023-06-10T06:55:34;47290.75;;;-146.31;83.45
2036;BME280;23642;42.658;23.350;2023-06-10T06:58:58;47498.88;;;-146.31;84.77
2036;BME280;23642;42.658;23.350;2023-06-10T07:01:32;47426.75;;;-146.31;84.33
2036;BME280;23642;42.658;23.350;2023-06-10T07:04:38;47461.78;;;-146.31;83.01
2036;BME280;23642;42.658;23.350;2023-06-10T07:10:17;47630.75;;;-146.31;82.42
2036;BME280;23642;42.658;23.350;2023-06-10T07:13:11;47707.00;;;-146.31;79.29
2036;BME280;23642;42.658;23.350;2023-06-10T07:15:46;47882.16;;;-146.31;77.93
2036;BME280;23642;42.658;23.350;2023-06-10T07:18:52;47970.78;;;-146.31;78.13
2036;BME280;23642;42.658;23.350;2023-06-10T07:22:27;48112.97;;;-146.31;78.32
2036;BME280;23642;42.658;23.350;2023-06-10T07:27:33;48158.31;;;-146.31;74.80
2036;BME280;23642;42.658;23.350;2023-06-10T07:30:08;48341.75;;;-146.31;76.73
2036;BME280;23642;42.658;23.350;2023-06-10T07:33:00;48298.47;;;-146.31;75.69
2036;BME280;23642;42.658;23.350;2023-06-10T07:35:42;48352.06;;;-146.31;74.67
2036;BME280;23642;42.658;23.350;2023-06-10T07:38:33;48321.13;;;-146.31;76.52
2036;BME280;23642;42.658;23.350;2023-06-10T07:41:28;48374.72;;;-146.31;76.71
2036;BME280;23642;42.658;23.350;2023-06-10T07:44:10;48345.88;;;-146.31;75.04
2036;BME280;23642;42.658;23.350;2023-06-10T07:46:42;48337.63;;;-146.31;75.27
2036;BME280;23642;42.658;23.350;2023-06-10T07:50:29;48436.56;;;-146.31;74.22
2036;BME280;23642;42.658;23.350;2023-06-10T07:52:47;48492.22;;;-146.31;75.70
2036;BME280;23642;42.658;23.350;2023-06-10T08:02:56;48659.19;;;-146.31;79.41
2036;BME280;23642;42.658;23.350;2023-06-10T08:09:25;48467.47;;;-146.31;78.96
2036;BME280;23642;42.658;23.350;2023-06-10T08:16:19;48766.38;;;-146.31;71.44
2036;BME280;23642;42.658;23.350;2023-06-10T08:27:24;48951.91;;;-146.31;66.00
2036;BME280;23642;42.658;23.350;2023-06-10T08:39:50;49032.28;;;-146.31;56.37
2036;BME280;23642;42.658;23.350;2023-06-10T08:42:48;49022.00;;;-146.31;59.28
2036;BME280;23642;42.658;23.350;2023-06-10T08:45:22;49267.31;;;-146.31;53.98
2036;BME280;23642;42.658;23.350;2023-06-10T08:48:05;49370.41;;;-146.31;53.57
2036;BME280;23642;42.658;23.350;2023-06-10T08:51:04;49339.47;;;-146.31;52.98
2036;BME280;23642;42.658;23.350;2023-06-10T08:53:45;49438.44;;;-146.31;52.98
2036;BME280;23642;42.658;23.350;2023-06-10T08:56:24;49603.38;;;-146.31;51.89
2036;BME280;23642;42.658;23.350;2023-06-10T08:59:16;49537.41;;;-146.31;52.33
2036;BME280;23642;42.658;23.350;2023-06-10T09:02:07;49621.94;;;-146.31;51.51
2036;BME280;23642;42.658;23.350;2023-06-10T09:05:03;49712.66;;;-146.31;50.85
2036;BME280;23642;42.658;23.350;2023-06-10T09:10:49;49747.72;;;-146.31;49.78
2036;BME280;23642;42.658;23.350;2023-06-10T09:13:39;49801.34;;;-146.31;50.50
2036;BME280;23642;42.658;23.350;2023-06-10T09:16:21;49793.09;;;-146.31;51.49
2036;BME280;23642;42.658;23.350;2023-06-10T09:18:57;49846.69;;;-146.31;49.69
2036;BME280;23642;42.658;23.350;2023-06-10T09:21:42;50007.53;;;-146.31;51.75
2036;BME280;23642;42.658;23.350;2023-06-10T09:24:39;50005.47;;;-146.31;49.65
2036;BME280;23642;42.658;23.350;2023-06-10T09:27:25;49970.44;;;-146.31;48.14
2036;BME280;23642;42.658;23.350;2023-06-10T09:30:26;49956.00;;;-146.31;48.50
2036;BME280;23642;42.658;23.350;2023-06-10T09:33:09;49900.31;;;-146.31;47.58
2036;BME280;23642;42.658;23.350;2023-06-10T09:35:49;50034.34;;;-146.31;48.01
2036;BME280;23642;42.658;23.350;2023-06-10T09:38:46;50248.81;;;-146.31;47.09
2036;BME280;23642;42.658;23.350;2023-06-10T09:41:32;50448.88;;;-146.31;46.96
2036;BME280;23642;42.658;23.350;2023-06-10T09:44:12;50331.31;;;-146.31;48.91
2036;BME280;23642;42.658;23.350;2023-06-10T09:47:02;50552.00;;;-146.31;48.61
2036;BME280;23642;42.658;23.350;2023-06-10T09:53:24;50448.88;;;-146.31;48.81
2036;BME280;23642;42.658;23.350;2023-06-10T09:56:52;50349.88;;;-146.31;46.99
2036;BME280;23642;42.658;23.350;2023-06-10T09:59:38;50407.63;;;-146.31;46.74
2036;BME280;23642;42.658;23.350;2023-06-10T10:02:36;50335.44;;;-146.31;46.64
2036;BME280;23642;42.658;23.350;2023-06-10T10:05:18;50236.44;;;-146.31;46.48
2036;BME280;23642;42.658;23.350;2023-06-10T10:07:52;50184.88;;;-146.31;46.10
2036;BME280;23642;42.658;23.350;2023-06-10T10:10:30;50199.31;;;-146.31;44.90
2036;BME280;23642;42.658;23.350;2023-06-10T10:16:58;50442.69;;;-146.31;44.52
2036;BME280;23642;42.658;23.350;2023-06-10T10:23:18;50632.44;;;-146.31;46.29
2036;BME280;23642;42.658;23.350;2023-06-10T10:26:12;50405.56;;;-146.31;47.91
2036;BME280;23642;42.658;23.350;2023-06-10T10:29:10;50450.94;;;-146.31;44.77
2036;BME280;23642;42.658;23.350;2023-06-10T10:31:49;50912.94;;;-146.31;45.09
2036;BME280;23642;42.658;23.350;2023-06-10T10:35:01;51036.69;;;-146.31;44.89
2036;BME280;23642;42.658;23.350;2023-06-10T10:38:02;51146.03;;;-146.31;46.40
2036;BME280;23642;42.658;23.350;2023-06-10T10:40:44;51042.88;;;-146.31;46.34
2036;BME280;23642;42.658;23.350;2023-06-10T10:46:18;51032.56;;;-146.31;44.67
2036;BME280;23642;42.658;23.350;2023-06-10T10:48:55;51141.91;;;-146.31;41.71
2036;BME280;23642;42.658;23.350;2023-06-10T10:51:58;51164.59;;;-146.31;41.87
2036;BME280;23642;42.658;23.350;2023-06-10T10:56:20;51113.03;;;-146.31;41.81
2036;BME280;23642;42.658;23.350;2023-06-10T10:58:39;50803.63;;;-146.31;40.55
2036;BME280;23642;42.658;23.350;2023-06-10T11:04:09;50597.38;;;-146.31;42.06
2036;BME280;23642;42.658;23.350;2023-06-10T11:06:58;50968.63;;;-146.31;43.59
2036;BME280;23642;42.658;23.350;2023-06-10T11:13:20;51141.91;;;-146.31;44.97
2036;BME280;23642;42.658;23.350;2023-06-10T11:15:57;51168.72;;;-146.31;45.35
2036;BME280;23642;42.658;23.350;2023-06-10T11:18:46;51071.75;;;-146.31;44.54
2036;BME280;23642;42.658;23.350;2023-06-10T11:21:57;51082.09;;;-146.31;43.32
2036;BME280;23642;42.658;23.350;2023-06-10T11:24:40;50960.38;;;-146.31;41.79
2036;BME280;23642;42.658;23.350;2023-06-10T11:27:41;51245.03;;;-146.31;42.74
2036;BME280;23642;42.658;23.350;2023-06-10T11:30:34;51080.03;;;-146.31;41.34
2036;BME280;23642;42.658;23.350;2023-06-10T11:33:47;50972.75;;;-146.31;41.01
2036;BME280;23642;42.658;23.350;2023-06-10T11:36:46;51061.44;;;-146.31;40.54
2036;BME280;23642;42.658;23.350;2023-06-10T11:39:38;50840.75;;;-146.31;41.81
2036;BME280;23642;42.658;23.350;2023-06-10T11:42:35;51298.69;;;-146.31;42.64
2036;BME280;23642;42.658;23.350;2023-06-10T11:45:59;51624.63;;;-146.31;43.94
2036;BME280;23642;42.658;23.350;2023-06-10T11:55:14;51296.63;;;-146.31;42.83
2036;BME280;23642;42.658;23.350;2023-06-10T12:04:53;51127.47;;;-146.31;41.58
2036;BME280;23642;42.658;23.350;2023-06-10T12:08:27;51251.22;;;-146.31;41.17
2036;BME280;23642;42.658;23.350;2023-06-10T12:14:04;51538.00;;;-146.31;39.82
2036;BME280;23642;42.658;23.350;2023-06-10T12:17:34;51420.41;;;-146.31;38.86
2036;BME280;23642;42.658;23.350;2023-06-10T12:20:45;51123.34;;;-146.31;37.24
2036;BME280;23642;42.658;23.350;2023-06-10T12:27:21;51375.00;;;-146.31;37.18
2036;BME280;23642;42.658;23.350;2023-06-10T12:30:09;51430.72;;;-146.31;38.24
2036;BME280;23642;42.658;23.350;2023-06-10T12:32:48;51393.56;;;-146.31;39.43
2036;BME280;23642;42.658;23.350;2023-06-10T12:35:27;51317.25;;;-146.31;38.94
2036;BME280;23642;42.658;23.350;2023-06-10T12:38:36;51098.59;;;-146.31;39.03
2036;BME280;23642;42.658;23.350;2023-06-10T12:41:10;51141.91;;;-146.31;39.66
2036;BME280;23642;42.658;23.350;2023-06-10T12:46:46;51133.66;;;-146.31;38.27
2036;BME280;23642;42.658;23.350;2023-06-10T12:49:23;51014.00;;;-146.31;37.47
2036;BME280;23642;42.658;23.350;2023-06-10T12:52:13;51108.91;;;-146.31;37.71
2036;BME280;23642;42.658;23.350;2023-06-10T12:55:15;51117.16;;;-146.31;36.36
2036;BME280;23642;42.658;23.350;2023-06-10T12:57:51;51220.28;;;-146.31;36.07
2036;BME280;23642;42.658;23.350;2023-06-10T13:03:47;51888.72;;;-146.31;36.26
2036;BME280;23642;42.658;23.350;2023-06-10T13:06:20;52165.22;;;-146.31;35.68
2036;BME280;23642;42.658;23.350;2023-06-10T13:09:09;52202.34;;;-146.31;36.51
2036;BME280;23642;42.658;23.350;2023-06-10T13:11:44;52062.03;;;-146.31;36.50
2036;BME280;23642;42.658;23.350;2023-06-10T13:14:32;52216.81;;;-146.31;37.00
2036;BME280;23642;42.658;23.350;2023-06-10T13:17:34;52309.66;;;-146.31;36.27
2036;BME280;23642;42.658;23.350;2023-06-10T13:23:12;52353.00;;;-146.31;37.28
2036;BME280;23642;42.658;23.350;2023-06-10T13:25:59;52483.00;;;-146.31;37.44
2036;BME280;23642;42.658;23.350;2023-06-10T13:28:41;52738.91;;;-146.31;37.37
2036;BME280;23642;42.658;23.350;2023-06-10T13:31:33;52835.91;;;-146.31;45.31
2036;BME280;23642;42.658;23.350;2023-06-10T13:34:17;52842.09;;;-146.31;48.66
2036;BME280;23642;42.658;23.350;2023-06-10T13:36:48;52850.34;;;-146.31;50.13
2036;BME280;23642;42.658;23.350;2023-06-10T13:42:26;52943.22;;;-146.31;52.39
2036;BME280;23642;42.658;23.350;2023-06-10T13:45:09;52901.94;;;-146.31;53.52
2036;BME280;23642;42.658;23.350;2023-06-10T13:48:10;52924.66;;;-146.31;55.05
2036;BME280;23642;42.658;23.350;2023-06-10T13:50:51;52926.72;;;-146.31;56.83
2036;BME280;23642;42.658;23.350;2023-06-10T13:53:28;52910.19;;;-146.31;57.97
2036;BME280;23642;42.658;23.350;2023-06-10T13:59:09;52934.97;;;-146.31;59.80
2036;BME280;23642;42.658;23.350;2023-06-10T14:01:53;52871.00;;;-146.31;59.61
2036;BME280;23642;42.658;23.350;2023-06-10T14:04:51;52825.59;;;-146.31;59.42
2036;BME280;23642;42.658;23.350;2023-06-10T14:07:40;52765.72;;;-146.31;59.23
2036;BME280;23642;42.658;23.350;2023-06-10T14:13:41;52672.84;;;-146.31;59.72
2036;BME280;23642;42.658;23.350;2023-06-10T14:16:53;52677.00;;;-146.31;59.27
2036;BME280;23642;42.658;23.350;2023-06-10T14:19:33;52629.53;;;-146.31;58.66
2036;BME280;23642;42.658;23.350;2023-06-10T14:23:05;52577.94;;;-146.31;56.75
2036;BME280;23642;42.658;23.350;2023-06-10T14:25:49;52456.19;;;-146.31;56.11
2036;BME280;23642;42.658;23.350;2023-06-10T14:28:34;52476.81;;;-146.31;54.63
2036;BME280;23642;42.658;23.350;2023-06-10T14:34:47;52569.69;;;-146.31;55.17
2036;BME280;23642;42.658;23.350;2023-06-10T14:41:15;52258.06;;;-146.31;52.80
2036;BME280;23642;42.658;23.350;2023-06-10T14:46:44;52569.69;;;-146.31;51.79
2036;BME280;23642;42.658;23.350;2023-06-10T14:49:30;52623.34;;;-146.31;53.15
2036;BME280;23642;42.658;23.350;2023-06-10T14:52:52;52478.88;;;-146.31;51.51
2036;BME280;23642;42.658;23.350;2023-06-10T14:55:52;52412.84;;;-146.31;52.19
2036;BME280;23642;42.658;23.350;2023-06-10T14:58:40;52289.03;;;-146.31;50.79
2036;BME280;23642;42.658;23.350;2023-06-10T15:04:38;52379.81;;;-146.31;48.04
2036;BME280;23642;42.658;23.350;2023-06-10T15:07:28;52218.88;;;-146.31;47.11
2036;BME280;23642;42.658;23.350;2023-06-10T15:10:17;52301.41;;;-146.31;46.24
2036;BME280;23642;42.658;23.350;2023-06-10T15:16:42;52416.97;;;-146.31;48.03
2036;BME280;23642;42.658;23.350;2023-06-10T15:19:29;52388.06;;;-146.31;48.00
2036;BME280;23642;42.658;23.350;2023-06-10T15:23:02;52416.97;;;-146.31;48.20
2036;BME280;23642;42.658;23.350;2023-06-10T15:26:20;52299.34;;;-146.31;47.56
2036;BME280;23642;42.658;23.350;2023-06-10T15:32:48;52577.94;;;-146.31;46.16
2036;BME280;23642;42.658;23.350;2023-06-10T15:42:32;52511.91;;;-146.31;45.05
2036;BME280;23642;42.658;23.350;2023-06-10T15:45:23;52381.88;;;-146.31;44.27
2036;BME280;23642;42.658;23.350;2023-06-10T15:48:25;52501.56;;;-146.31;46.19
2036;BME280;23642;42.658;23.350;2023-06-10T16:00:47;52489.19;;;-146.31;49.78
2036;BME280;23642;42.658;23.350;2023-06-10T16:03:25;52499.50;;;-146.31;54.18
2036;BME280;23642;42.658;23.350;2023-06-10T16:06:12;52503.63;;;-146.31;55.39
2036;BME280;23642;42.658;23.350;2023-06-10T16:08:58;52421.09;;;-146.31;54.78
2036;BME280;23642;42.658;23.350;2023-06-10T16:11:39;52317.91;;;-146.31;55.01
2036;BME280;23642;42.658;23.350;2023-06-10T16:14:39;52375.69;;;-146.31;53.88
2036;BME280;23642;42.658;23.350;2023-06-10T16:21:23;52357.13;;;-146.31;54.89
2036;BME280;23642;42.658;23.350;2023-06-10T16:24:10;52324.09;;;-146.31;53.86
2036;BME280;23642;42.658;23.350;2023-06-10T16:26:43;51909.34;;;-146.31;51.40
2036;BME280;23642;42.658;23.350;2023-06-10T16:29:34;51861.91;;;-146.31;50.25
2036;BME280;23642;42.658;23.350;2023-06-10T16:32:19;51438.97;;;-146.31;47.26
2036;BME280;23642;42.658;23.350;2023-06-10T16:35:10;51077.97;;;-146.31;44.63
2036;BME280;23642;42.658;23.350;2023-06-10T16:38:12;51591.63;;;-146.31;47.44
2036;BME280;23642;42.658;23.350;2023-06-10T16:41:16;52045.53;;;-146.31;48.80
2036;BME280;23642;42.658;23.350;2023-06-10T16:44:09;52319.97;;;-146.31;51.88
2036;BME280;23642;42.658;23.350;2023-06-10T16:47:02;52435.53;;;-146.31;53.00
2036;BME280;23642;42.658;23.350;2023-06-10T16:53:07;52623.34;;;-146.31;53.72
2036;BME280;23642;42.658;23.350;2023-06-10T16:55:49;52635.72;;;-146.31;53.82
2036;BME280;23642;42.658;23.350;2023-06-10T16:58:34;52656.34;;;-146.31;54.81
2036;BME280;23642;42.658;23.350;2023-06-10T17:01:19;52664.59;;;-146.31;55.53
2036;BME280;23642;42.658;23.350;2023-06-10T17:03:53;52747.16;;;-146.31;55.96
2036;BME280;23642;42.658;23.350;2023-06-10T17:06:54;52757.47;;;-146.31;56.11
2036;BME280;23642;42.658;23.350;2023-06-10T17:09:54;52776.06;;;-146.31;57.79
2036;BME280;23642;42.658;23.350;2023-06-10T17:15:52;52831.78;;;-146.31;61.25
2036;BME280;23642;42.658;23.350;2023-06-10T17:18:38;52833.84;;;-146.31;62.91
2036;BME280;23642;42.658;23.350;2023-06-10T17:21:38;52833.84;;;-146.31;64.03
2036;BME280;23642;42.658;23.350;2023-06-10T17:27:33;52759.53;;;-146.31;65.78
2036;BME280;23642;42.658;23.350;2023-06-10T17:30:47;52734.78;;;-146.31;65.22
2036;BME280;23642;42.658;23.350;2023-06-10T17:33:24;52730.66;;;-146.31;66.60
2036;BME280;23642;42.658;23.350;2023-06-10T17:35:57;52724.47;;;-146.31;66.95
2036;BME280;23642;42.658;23.350;2023-06-10T17:39:00;52685.25;;;-146.31;67.92
2036;BME280;23642;42.658;23.350;2023-06-10T17:42:04;52598.56;;;-146.31;68.21
2036;BME280;23642;42.658;23.350;2023-06-10T17:44:45;52557.28;;;-146.31;69.83
2036;BME280;23642;42.658;23.350;2023-06-10T17:50:42;52511.91;;;-146.31;70.90
2036;BME280;23642;42.658;23.350;2023-06-10T17:53:45;52416.97;;;-146.31;72.05
2036;BME280;23642;42.658;23.350;2023-06-10T17:57:27;52245.69;;;-146.31;72.85
2036;BME280;23642;42.658;23.350;2023-06-10T18:00:18;52090.94;;;-146.31;74.02
2036;BME280;23642;42.658;23.350;2023-06-10T18:09:59;51767.00;;;-146.31;75.98
2036;BME280;23642;42.658;23.350;2023-06-10T18:33:34;51306.94;;;-146.31;85.36